Time;durP1;ratioP1;P1;durP2;ratioP2;P2;SDS_P1;SDS_P2;PMS_P1;PMS_P2;Temp;Humidity;BMP_temperature;BMP_pressure;BME280_temperature;BME280_humidity;BME280_pressure;Samples;Min_cycle;Max_cycle;Signal;HPM_P1;HPM_P2
2022/04/19 00:01:07;;;;;;;;;;;;;;;;;;5103190;28;1960;-76
2022/04/19 00:03:32;;;;;;;;;;;;;;;;;;5086588;28;1281;-75
2022/04/19 00:05:57;;;;;;;;;;;;;;;;;;5105261;27;1251;-75
2022/04/19 00:08:22;;;;;;;;;;;;;;;;;;5103323;27;1190;-75
2022/04/19 00:10:48;;;;;;;;;;;;;;;;;;5111342;27;1269;-74
2022/04/19 00:13:18;;;;;;;;;;;;;;;;;;5114665;27;1367;-76
2022/04/19 00:15:43;;;;;;;;;;;;;;;;;;5124336;27;1203;-75
2022/04/19 00:18:21;;;;;;;;;;;;;;;;;;;;;
2022/04/19 00:20:47;;;;;;;;;;;;;;;;;;5125491;27;1953;-74
2022/04/19 00:23:17;;;;;;;;;;;;;;;;;;5121972;27;1016;-74
2022/04/19 00:25:43;;;;;;;;;;;;;;;;;;5123905;27;1210;-74
2022/04/19 00:28:08;;;;;;;;;;;;;;;;;;5121809;27;1276;-73
2022/04/19 00:30:34;;;;;;;;;;;;;;;;;;5119295;27;1202;-75
2022/04/19 00:33:00;;;;;;;;;;;;;;;;;;5115118;27;1224;-76
2022/04/19 00:35:27;;;;;;;;;;;;;;;;;;5100943;28;1115;-73
2022/04/19 00:37:52;;;;;;;;;;;;;;;;;;5102474;28;1290;-75
2022/04/19 00:40:17;;;;;;;;;;;;;;;;;;5103115;28;1986;-74
2022/04/19 00:42:43;;;;;;;;;;;;;;;;;;5096591;27;1179;-73
2022/04/19 00:45:08;;;;;;;;;;;;;;;;;;5113618;27;1331;-73
2022/04/19 00:47:34;;;;;;;;;;;;;;;;;;5103179;27;1033;-75
2022/04/19 00:50:01;;;;;;;;;;;;;;;;;;5124280;27;1158;-74
2022/04/19 00:52:26;;;;;;;;;;;;;;;;;;5123529;27;1182;-74
2022/04/19 00:54:52;;;;;;;;;;;;;;;;;;5106276;27;1231;-74
2022/04/19 00:57:18;;;;;;;;;;;;;;;;;;5103087;27;1148;-74
2022/04/19 00:59:46;;;;;;;;;;;;;;;;;;5104274;27;1277;-73
2022/04/19 01:02:11;;;;;;;;;;;;;;;;;;5112758;27;1893;-75
2022/04/19 01:04:36;;;;;;;;;;;;;;;;;;5116498;27;1211;-76
2022/04/19 01:07:02;;;;;;;;;;;;;;;;;;5106110;28;1147;-74
2022/04/19 01:09:28;;;;;;;;;;;;;;;;;;5085041;28;1396;-74
2022/04/19 01:14:37;;;;;;;;;;;;;;;;;;5117141;27;1003;-74
2022/04/19 01:17:03;;;;;;;;;;;;;;;;;;5087100;28;1194;-74
2022/04/19 01:19:29;;;;;;;;;;;;;;;;;;5101650;28;1388;-75
2022/04/19 01:21:54;;;;;;;;;;;;;;;;;;5105712;28;1940;-75
2022/04/19 01:24:23;;;;;;;;;;;;;;;;;;5104934;28;1221;-75
2022/04/19 01:26:49;;;;;;;;;;;;;;;;;;5100395;28;1227;-74
2022/04/19 01:29:15;;;;;;;;;;;;;;;;;;5100946;28;1153;-74
2022/04/19 01:31:41;;;;;;;;;;;;;;;;;;5100069;28;1459;-74
2022/04/19 01:34:07;;;;;;;;;;;;;;;;;;5101642;28;1226;-75
2022/04/19 01:36:36;;;;;;;;;;;;;;;;;;5101234;28;1362;-74
2022/04/19 01:39:01;;;;;;;;;;;;;;;;;;5103700;28;1245;-75
2022/04/19 01:41:27;;;;;;;;;;;;;;;;;;5109655;28;1910;-75
2022/04/19 01:43:56;;;;;;;;;;;;;;;;;;5108772;28;1260;-74
2022/04/19 01:46:23;;;;;;;;;;;;;;;;;;5099899;28;1482;-74
2022/04/19 01:48:50;;;;;;;;;;;;;;;;;;5119657;28;1246;-74
2022/04/19 01:51:16;;;;;;;;;;;;;;;;;;5124505;28;1253;-75
2022/04/19 01:53:41;;;;;;;;;;;;;;;;;;5120951;28;1092;-75
2022/04/19 01:56:11;;;;;;;;;;;;;;;;;;5123052;27;1195;-74
2022/04/19 01:58:37;;;;;;;;;;;;;;;;;;5090269;28;1229;-74
2022/04/19 02:01:05;;;;;;;;;;;;;;;;;;5104626;28;1914;-75
2022/04/19 02:03:31;;;;;;;;;;;;;;;;;;5110357;27;1148;-75
2022/04/19 02:05:56;;;;;;;;;;;;;;;;;;5112983;27;1211;-74
2022/04/19 02:08:22;;;;;;;;;;;;;;;;;;5102494;28;1125;-75
2022/04/19 02:10:48;;;;;;;;;;;;;;;;;;5119157;27;1227;-74
2022/04/19 02:13:13;;;;;;;;;;;;;;;;;;5123700;27;1435;-74
2022/04/19 02:15:39;;;;;;;;;;;;;;;;;;5108996;27;1163;-73
2022/04/19 02:18:05;;;;;;;;;;;;;;;;;;5123998;27;1234;-75
2022/04/19 02:20:30;;;;;;;;;;;;;;;;;;5116218;27;1886;-75
2022/04/19 02:22:55;;;;;;;;;;;;;;;;;;5107208;27;1257;-74
2022/04/19 02:25:24;;;;;;;;;;;;;;;;;;5121205;27;1143;-73
2022/04/19 02:27:52;;;;;;;;;;;;;;;;;;5103699;27;1208;-73
2022/04/19 02:30:18;;;;;;;;;;;;;;;;;;5126437;27;1321;-74
2022/04/19 02:32:44;;;;;;;;;;;;;;;;;;5119893;27;1135;-74
2022/04/19 02:35:09;;;;;;;;;;;;;;;;;;5104607;27;1136;-74
2022/04/19 02:37:35;;;;;;;;;;;;;;;;;;5086406;28;1273;-74
2022/04/19 02:40:01;;;;;;;;;;;;;;;;;;5105984;27;1965;-75
2022/04/19 02:42:29;;;;;;;;;;;;;;;;;;5104820;28;1186;-74
2022/04/19 02:44:56;;;;;;;;;;;;;;;;;;5106942;27;1297;-74
2022/04/19 02:47:21;;;;;;;;;;;;;;;;;;5118528;27;1135;-74
2022/04/19 02:49:46;;;;;;;;;;;;;;;;;;5103518;28;1123;-75
2022/04/19 02:52:12;;;;;;;;;;;;;;;;;;5105037;28;1155;-73
2022/04/19 02:54:37;;;;;;;;;;;;;;;;;;5103085;28;1105;-74
2022/04/19 02:57:02;;;;;;;;;;;;;;;;;;5112218;27;1175;-75
2022/04/19 02:59:31;;;;;;;;;;;;;;;;;;5111874;27;1108;-73
2022/04/19 03:01:57;;;;;;;;;;;;;;;;;;5125378;27;1964;-74
2022/04/19 03:04:22;;;;;;;;;;;;;;;;;;5122874;27;1143;-76
2022/04/19 03:06:48;;;;;;;;;;;;;;;;;;5123461;27;1084;-74
2022/04/19 03:09:13;;;;;;;;;;;;;;;;;;5122016;27;1300;-73
2022/04/19 03:11:38;;;;;;;;;;;;;;;;;;5104792;27;1328;-74
2022/04/19 03:14:06;;;;;;;;;;;;;;;;;;5124637;27;1064;-74
2022/04/19 03:16:32;;;;;;;;;;;;;;;;;;5125639;27;1432;-73
2022/04/19 03:18:57;;;;;;;;;;;;;;;;;;5108737;27;1182;-73
2022/04/19 03:21:22;;;;;;;;;;;;;;;;;;5109770;27;1906;-75
2022/04/19 03:29:33;;;;;;;;;;;;;;;;;;5122900;27;1051;-74
2022/04/19 03:31:59;;;;;;;;;;;;;;;;;;5126437;27;1529;-76
2022/04/19 03:34:25;;;;;;;;;;;;;;;;;;5123306;27;1186;-74
2022/04/19 03:36:52;;;;;;;;;;;;;;;;;;5126428;27;1257;-74
2022/04/19 03:39:17;;;;;;;;;;;;;;;;;;5126612;27;1167;-73
2022/04/19 03:41:42;;;;;;;;;;;;;;;;;;5122582;27;1914;-73
2022/04/19 03:44:08;;;;;;;;;;;;;;;;;;5123366;27;1345;-74
2022/04/19 03:47:07;;;;;;;;;;;;;;;;;;5122596;27;1123;-74
2022/04/19 03:49:19;;;;;;;;;;;;;;;;;;5122173;27;1305;-74
2022/04/19 03:51:44;;;;;;;;;;;;;;;;;;5115284;27;1099;-75
2022/04/19 03:54:09;;;;;;;;;;;;;;;;;;5102677;28;1193;-74
2022/04/19 03:56:35;;;;;;;;;;;;;;;;;;5101151;28;1158;-74
2022/04/19 03:59:00;;;;;;;;;;;;;;;;;;5102070;28;1127;-74
2022/04/19 04:01:25;;;;;;;;;;;;;;;;;;5103852;27;1952;-74
2022/04/19 04:03:51;;;;;;;;;;;;;;;;;;5114812;27;1189;-74
2022/04/19 04:06:19;;;;;;;;;;;;;;;;;;5106914;27;1164;-73
2022/04/19 04:08:45;;;;;;;;;;;;;;;;;;5101841;28;1406;-73
2022/04/19 04:11:11;;;;;;;;;;;;;;;;;;5103880;28;1127;-76
2022/04/19 04:13:36;;;;;;;;;;;;;;;;;;5102961;27;1137;-74
2022/04/19 04:16:03;;;;;;;;;;;;;;;;;;5101577;27;1245;-74
2022/04/19 04:18:29;;;;;;;;;;;;;;;;;;5102521;27;1343;-73
2022/04/19 04:20:54;;;;;;;;;;;;;;;;;;5104550;28;1943;-74
2022/04/19 04:23:19;;;;;;;;;;;;;;;;;;5105988;28;1136;-74
2022/04/19 04:25:44;;;;;;;;;;;;;;;;;;5108867;27;1128;-74
2022/04/19 04:28:10;;;;;;;;;;;;;;;;;;5103764;27;1333;-74
2022/04/19 04:30:36;;;;;;;;;;;;;;;;;;5112390;27;1336;-74
2022/04/19 04:33:01;;;;;;;;;;;;;;;;;;5089864;27;1425;-75
2022/04/19 04:35:26;;;;;;;;;;;;;;;;;;5113388;27;1187;-73
2022/04/19 04:37:51;;;;;;;;;;;;;;;;;;5096616;28;1228;-74
2022/04/19 04:40:16;;;;;;;;;;;;;;;;;;5118387;27;1964;-75
2022/04/19 04:42:42;;;;;;;;;;;;;;;;;;5112185;27;1108;-75
2022/04/19 04:45:07;;;;;;;;;;;;;;;;;;5088757;27;1246;-74
2022/04/19 04:50:24;;;;;;;;;;;;;;;;;;5115381;27;1044;-76
2022/04/19 04:52:52;;;;;;;;;;;;;;;;;;5115255;27;1223;-74
2022/04/19 04:55:17;;;;;;;;;;;;;;;;;;5088597;28;1202;-74
2022/04/19 04:57:43;;;;;;;;;;;;;;;;;;5101576;28;1134;-74
2022/04/19 05:00:08;;;;;;;;;;;;;;;;;;5101575;28;1897;-74
2022/04/19 05:02:35;;;;;;;;;;;;;;;;;;5117760;27;1195;-75
2022/04/19 05:05:01;;;;;;;;;;;;;;;;;;5125506;27;1211;-75
2022/04/19 05:07:26;;;;;;;;;;;;;;;;;;5093065;28;1233;-75
2022/04/19 05:09:51;;;;;;;;;;;;;;;;;;5103964;28;1171;-75
2022/04/19 05:12:16;;;;;;;;;;;;;;;;;;5104469;28;980;-74
2022/04/19 05:14:41;;;;;;;;;;;;;;;;;;5101445;28;1075;-75
2022/04/19 05:17:07;;;;;;;;;;;;;;;;;;5089588;28;1221;-74
2022/04/19 05:19:32;;;;;;;;;;;;;;;;;;5104851;27;794;-74
2022/04/19 05:21:57;;;;;;;;;;;;;;;;;;5103153;28;1889;-74
2022/04/19 05:24:22;;;;;;;;;;;;;;;;;;5103645;28;1213;-75
2022/04/19 05:26:48;;;;;;;;;;;;;;;;;;5100132;28;1124;-75
2022/04/19 05:29:13;;;;;;;;;;;;;;;;;;5088254;27;1301;-74
2022/04/19 05:31:39;;;;;;;;;;;;;;;;;;5106236;27;1303;-75
2022/04/19 05:34:04;;;;;;;;;;;;;;;;;;5102167;28;1207;-75
2022/04/19 05:36:30;;;;;;;;;;;;;;;;;;5104877;28;1234;-75
2022/04/19 05:38:55;;;;;;;;;;;;;;;;;;5108234;28;1491;-74
2022/04/19 05:41:21;;;;;;;;;;;;;;;;;;5125259;28;1913;-75
2022/04/19 05:43:47;;;;;;;;;;;;;;;;;;5107106;28;1346;-75
2022/04/19 05:46:13;;;;;;;;;;;;;;;;;;5106127;28;1254;-74
2022/04/19 05:48:40;;;;;;;;;;;;;;;;;;5104251;28;1490;-73
2022/04/19 05:51:06;;;;;;;;;;;;;;;;;;5107138;28;1210;-74
2022/04/19 05:53:31;;;;;;;;;;;;;;;;;;5123253;28;1214;-73
2022/04/19 05:55:57;;;;;;;;;;;;;;;;;;5124671;28;1278;-73
2022/04/19 05:58:22;;;;;;;;;;;;;;;;;;5097161;28;1177;-75
2022/04/19 06:00:47;;;;;;;;;;;;;;;;;;5102450;28;1950;-75
2022/04/19 06:06:06;;;;;;;;;;;;;;;;;;5120476;28;1040;-74
2022/04/19 06:08:32;;;;;;;;;;;;;;;;;;5086442;28;1242;-73
2022/04/19 06:10:57;;;;;;;;;;;;;;;;;;5103939;28;1222;-74
2022/04/19 06:13:22;;;;;;;;;;;;;;;;;;5105273;27;1240;-74
2022/04/19 06:15:47;;;;;;;;;;;;;;;;;;5119972;27;1243;-74
2022/04/19 06:18:17;;;;;;;;;;;;;;;;;;5121914;28;1189;-74
2022/04/19 06:20:44;;;;;;;;;;;;;;;;;;5101865;28;1878;-74
2022/04/19 06:23:11;;;;;;;;;;;;;;;;;;5103412;28;1384;-74
2022/04/19 06:25:37;;;;;;;;;;;;;;;;;;5105546;28;1168;-74
2022/04/19 06:28:02;;;;;;;;;;;;;;;;;;5100116;28;1235;-75
2022/04/19 06:30:27;;;;;;;;;;;;;;;;;;5103366;28;1113;-75
2022/04/19 06:32:53;;;;;;;;;;;;;;;;;;5101245;28;1142;-74
2022/04/19 06:35:18;;;;;;;;;;;;;;;;;;5083245;28;1209;-74
2022/04/19 06:37:47;;;;;;;;;;;;;;;;;;5103982;28;1289;-73
2022/04/19 06:40:12;;;;;;;;;;;;;;;;;;5105475;28;1914;-74
2022/04/19 06:42:38;;;;;;;;;;;;;;;;;;5111511;27;1228;-76
2022/04/19 06:45:04;;;;;;;;;;;;;;;;;;5105570;28;1139;-74
2022/04/19 06:47:29;;;;;;;;;;;;;;;;;;5122385;27;1127;-75
2022/04/19 06:49:57;;;;;;;;;;;;;;;;;;5126558;27;1281;-74
2022/04/19 06:52:23;;;;;;;;;;;;;;;;;;5128352;27;1147;-76
2022/04/19 06:54:49;;;;;;;;;;;;;;;;;;5126878;27;1181;-75
2022/04/19 06:57:15;;;;;;;;;;;;;;;;;;5107883;27;1307;-76
2022/04/19 06:59:40;;;;;;;;;;;;;;;;;;5113492;27;1178;-74
2022/04/19 07:02:05;;;;;;;;;;;;;;;;;;5127901;27;1934;-75
2022/04/19 07:04:31;;;;;;;;;;;;;;;;;;5117456;27;1077;-77
2022/04/19 07:06:56;;;;;;;;;;;;;;;;;;5117849;27;1246;-73
2022/04/19 07:09:21;;;;;;;;;;;;;;;;;;5127817;27;1140;-75
2022/04/19 07:11:52;;;;;;;;;;;;;;;;;;5125152;27;1256;-74
2022/04/19 07:14:17;;;;;;;;;;;;;;;;;;5128326;27;1163;-75
2022/04/19 07:16:43;;;;;;;;;;;;;;;;;;5109411;27;1282;-75
2022/04/19 07:19:08;;;;;;;;;;;;;;;;;;5107359;27;1589;-76
2022/04/19 07:27:01;;;;;;;;;;;;;;;;;;5099959;28;1020;-75
2022/04/19 07:29:26;;;;;;;;;;;;;;;;;;5087763;28;1243;-74
2022/04/19 07:31:52;;;;;;;;;;;;;;;;;;5104932;28;1155;-73
2022/04/19 07:34:17;;;;;;;;;;;;;;;;;;5085571;28;1314;-75
2022/04/19 07:36:43;;;;;;;;;;;;;;;;;;5104927;28;1155;-74
2022/04/19 07:39:09;;;;;;;;;;;;;;;;;;5114436;27;1274;-73
2022/04/19 07:41:35;;;;;;;;;;;;;;;;;;5105230;27;1902;-73
2022/04/19 07:44:01;;;;;;;;;;;;;;;;;;5116076;27;1084;-74
2022/04/19 07:46:28;;;;;;;;;;;;;;;;;;5124497;27;1219;-76
2022/04/19 07:48:54;;;;;;;;;;;;;;;;;;5104932;27;1250;-76
2022/04/19 07:51:19;;;;;;;;;;;;;;;;;;5091663;27;1166;-73
2022/04/19 07:53:45;;;;;;;;;;;;;;;;;;5109950;27;1134;-74
2022/04/19 07:56:11;;;;;;;;;;;;;;;;;;5104537;27;1307;-75
2022/04/19 07:58:37;;;;;;;;;;;;;;;;;;5125721;27;1247;-74
2022/04/19 08:01:03;;;;;;;;;;;;;;;;;;5123408;27;1894;-74
2022/04/19 08:03:29;;;;;;;;;;;;;;;;;;5123224;27;1182;-74
2022/04/19 08:05:54;;;;;;;;;;;;;;;;;;5101746;28;1339;-75
2022/04/19 08:08:23;;;;;;;;;;;;;;;;;;5111759;27;1100;-75
2022/04/19 08:10:49;;;;;;;;;;;;;;;;;;5126430;27;1263;-76
2022/04/19 08:13:14;;;;;;;;;;;;;;;;;;5103542;27;1154;-75
2022/04/19 08:15:39;;;;;;;;;;;;;;;;;;5105078;28;1170;-74
2022/04/19 08:18:04;;;;;;;;;;;;;;;;;;5125423;27;1112;-73
2022/04/19 08:20:30;;;;;;;;;;;;;;;;;;5125406;27;1935;-74
2022/04/19 08:22:55;;;;;;;;;;;;;;;;;;5108676;27;1276;-75
2022/04/19 08:25:22;;;;;;;;;;;;;;;;;;5125304;27;1477;-75
2022/04/19 08:27:47;;;;;;;;;;;;;;;;;;5124404;27;1206;-75
2022/04/19 08:30:13;;;;;;;;;;;;;;;;;;5125199;27;1317;-75
2022/04/19 08:32:39;;;;;;;;;;;;;;;;;;5111312;27;1316;-74
2022/04/19 08:35:05;;;;;;;;;;;;;;;;;;5124035;27;1230;-74
2022/04/19 08:37:31;;;;;;;;;;;;;;;;;;5120689;27;1167;-73
2022/04/19 08:39:59;;;;;;;;;;;;;;;;;;5105692;27;1298;-73
2022/04/19 08:42:25;;;;;;;;;;;;;;;;;;5103725;27;1909;-73
2022/04/19 08:44:50;;;;;;;;;;;;;;;;;;5124948;27;1280;-74
2022/04/19 08:47:16;;;;;;;;;;;;;;;;;;5127191;27;1137;-73
2022/04/19 08:49:41;;;;;;;;;;;;;;;;;;5125296;27;1355;-74
2022/04/19 08:52:08;;;;;;;;;;;;;;;;;;5125274;27;1292;-74
2022/04/19 08:57:29;;;;;;;;;;;;;;;;;;5113078;27;933;-74
2022/04/19 09:00:04;;;;;;;;;;;;;;;;;;5106136;28;1313;-74
2022/04/19 09:02:31;;;;;;;;;;;;;;;;;;5104023;28;1945;-74
2022/04/19 09:05:17;;;;;;;;;;;;;;;;;;5100566;27;1227;-75
2022/04/19 09:07:43;;;;;;;;;;;;;;;;;;5123406;27;1221;-74
2022/04/19 09:10:14;;;;;;;;;;;;;;;;;;5124384;27;1155;-73
2022/04/19 09:12:55;;;;;;;;;;;;;;;;;;5124078;27;1242;-74
2022/04/19 09:15:20;;;;;;;;;;;;;;;;;;5119086;27;1222;-73
2022/04/19 09:17:47;;;;;;;;;;;;;;;;;;5124729;27;1205;-74
2022/04/19 09:20:15;;;;;;;;;;;;;;;;;;5119963;27;1055;-75
2022/04/19 09:22:42;;;;;;;;;;;;;;;;;;5125117;27;1210;-73
2022/04/19 09:25:26;;;;;;;;;;;;;;;;;;5123316;27;1175;-75
2022/04/19 09:27:55;;;;;;;;;;;;;;;;;;5122144;27;1182;-75
2022/04/19 09:30:24;;;;;;;;;;;;;;;;;;5119189;27;1172;-73
2022/04/19 09:33:10;;;;;;;;;;;;;;;;;;5124084;27;1346;-74
2022/04/19 09:36:08;;;;;;;;;;;;;;;;;;5120309;27;1217;-73
2022/04/19 09:38:41;;;;;;;;;;;;;;;;;;5090092;28;1307;-75
2022/04/19 09:41:08;;;;;;;;;;;;;;;;;;5101479;28;1910;-76
2022/04/19 09:43:34;;;;;;;;;;;;;;;;;;5101821;28;1231;-74
2022/04/19 09:46:03;;;;;;;;;;;;;;;;;;5101466;28;1321;-74
2022/04/19 09:48:32;;;;;;;;;;;;;;;;;;5101060;28;1317;-75
2022/04/19 09:51:02;;;;;;;;;;;;;;;;;;5126861;28;1151;-74
2022/04/19 09:53:29;;;;;;;;;;;;;;;;;;5120998;28;1164;-74
2022/04/19 09:55:55;;;;;;;;;;;;;;;;;;5123138;28;1189;-76
2022/04/19 09:58:21;;;;;;;;;;;;;;;;;;5120071;27;1143;-73
2022/04/19 10:00:47;;;;;;;;;;;;;;;;;;5122306;27;1881;-75
2022/04/19 10:08:10;;;;;;;;;;;;;;;;;;5122602;28;1048;-74
2022/04/19 10:08:57;;;;;;;;;;;;;;;;;;5123972;28;1007;-73
2022/04/19 10:11:24;;;;;;;;;;;;;;;;;;5120010;28;1264;-74
2022/04/19 10:13:53;;;;;;;;;;;;;;;;;;5122202;27;1142;-75
2022/04/19 10:16:19;;;;;;;;;;;;;;;;;;5105872;27;1226;-75
2022/04/19 10:18:45;;;;;;;;;;;;;;;;;;5126099;27;1138;-74
2022/04/19 10:21:12;;;;;;;;;;;;;;;;;;5106930;27;1897;-74
2022/04/19 10:23:39;;;;;;;;;;;;;;;;;;5106670;28;1233;-74
2022/04/19 10:26:20;;;;;;;;;;;;;;;;;;5105199;28;1108;-76
2022/04/19 10:28:58;;;;;;;;;;;;;;;;;;5124111;27;1009;-75
2022/04/19 10:31:28;;;;;;;;;;;;;;;;;;5108891;27;1230;-75
2022/04/19 10:33:53;;;;;;;;;;;;;;;;;;5109403;27;1254;-74
2022/04/19 10:36:20;;;;;;;;;;;;;;;;;;5103459;28;1233;-73
2022/04/19 10:38:47;;;;;;;;;;;;;;;;;;5105851;27;1305;-74
2022/04/19 10:41:32;;;;;;;;;;;;;;;;;;5103366;28;1971;-74
2022/04/19 10:44:16;;;;;;;;;;;;;;;;;;5121989;27;1120;-74
2022/04/19 10:46:42;;;;;;;;;;;;;;;;;;5126714;27;1328;-73
2022/04/19 10:49:23;;;;;;;;;;;;;;;;;;5121592;27;1206;-74
2022/04/19 10:51:50;;;;;;;;;;;;;;;;;;5110338;27;1308;-74
2022/04/19 10:54:15;;;;;;;;;;;;;;;;;;5106187;27;1292;-75
2022/04/19 10:57:00;;;;;;;;;;;;;;;;;;5124908;27;1207;-73
2022/04/19 10:59:25;;;;;;;;;;;;;;;;;;5102566;27;1159;-73
2022/04/19 11:01:50;;;;;;;;;;;;;;;;;;5108246;27;1893;-74
2022/04/19 11:04:34;;;;;;;;;;;;;;;;;;5085451;28;1455;-73
2022/04/19 11:07:01;;;;;;;;;;;;;;;;;;5126750;27;1285;-73
2022/04/19 11:09:28;;;;;;;;;;;;;;;;;;5106872;27;1307;-74
2022/04/19 11:12:07;;;;;;;;;;;;;;;;;;5103739;28;1318;-74
2022/04/19 11:14:36;;;;;;;;;;;;;;;;;;5109879;27;1420;-74
2022/04/19 11:17:21;;;;;;;;;;;;;;;;;;5126942;27;1167;-73
2022/04/19 11:19:57;;;;;;;;;;;;;;;;;;5113628;27;1363;-74
2022/04/19 11:22:29;;;;;;;;;;;;;;;;;;5126964;27;1959;-74
2022/04/19 11:25:00;;;;;;;;;;;;;;;;;;5126588;27;1354;-74
2022/04/19 11:27:44;;;;;;;;;;;;;;;;;;5123539;27;1332;-74
2022/04/19 11:30:13;;;;;;;;;;;;;;;;;;5123146;27;1184;-74
2022/04/19 11:32:38;;;;;;;;;;;;;;;;;;5126869;27;1315;-73
2022/04/19 11:35:04;;;;;;;;;;;;;;;;;;5126058;27;1115;-73
2022/04/19 11:37:30;;;;;;;;;;;;;;;;;;5126026;27;1226;-74
2022/04/19 11:48:16;;;;;;;;;;;;;;;;;;5122568;27;1108;-74
2022/04/19 11:50:42;;;;;;;;;;;;;;;;;;5104041;28;1264;-75
2022/04/19 11:53:15;;;;;;;;;;;;;;;;;;5093336;27;1164;-75
2022/04/19 11:55:49;;;;;;;;;;;;;;;;;;5128077;27;1044;-74
2022/04/19 11:58:14;;;;;;;;;;;;;;;;;;5124482;27;1122;-74
2022/04/19 12:00:39;;;;;;;;;;;;;;;;;;5124615;27;1889;-74
2022/04/19 12:03:25;;;;;;;;;;;;;;;;;;5126710;27;1226;-74
2022/04/19 12:05:51;;;;;;;;;;;;;;;;;;5124434;27;1196;-73
2022/04/19 12:08:33;;;;;;;;;;;;;;;;;;5123393;27;1108;-74
2022/04/19 12:11:00;;;;;;;;;;;;;;;;;;5125200;27;1177;-74
2022/04/19 12:13:26;;;;;;;;;;;;;;;;;;5120699;27;1280;-74
2022/04/19 12:15:51;;;;;;;;;;;;;;;;;;5104958;27;1164;-74
2022/04/19 12:18:36;;;;;;;;;;;;;;;;;;5104900;27;1316;-74
2022/04/19 12:21:02;;;;;;;;;;;;;;;;;;5125924;27;1893;-74
2022/04/19 12:23:27;;;;;;;;;;;;;;;;;;5122529;27;1284;-74
2022/04/19 12:26:09;;;;;;;;;;;;;;;;;;5123999;27;1551;-73
2022/04/19 12:28:35;;;;;;;;;;;;;;;;;;5102317;28;1230;-75
2022/04/19 12:31:01;;;;;;;;;;;;;;;;;;5101569;28;1297;-74
2022/04/19 12:33:26;;;;;;;;;;;;;;;;;;5108969;27;1197;-73
2022/04/19 12:35:54;;;;;;;;;;;;;;;;;;5124371;27;1246;-74
2022/04/19 12:38:27;;;;;;;;;;;;;;;;;;5121177;27;1453;-74
2022/04/19 12:40:53;;;;;;;;;;;;;;;;;;5124933;27;1910;-75
2022/04/19 12:43:18;;;;;;;;;;;;;;;;;;5103881;27;1294;-74
2022/04/19 12:45:45;;;;;;;;;;;;;;;;;;5125583;27;1223;-74
2022/04/19 12:48:37;;;;;;;;;;;;;;;;;;5124477;27;1474;-75
2022/04/19 12:51:05;;;;;;;;;;;;;;;;;;5123081;27;1333;-76
2022/04/19 12:53:33;;;;;;;;;;;;;;;;;;5125352;27;1103;-74
2022/04/19 12:56:11;;;;;;;;;;;;;;;;;;5108637;27;1462;-74
2022/04/19 12:58:49;;;;;;;;;;;;;;;;;;5121882;27;1095;-74
2022/04/19 13:01:15;;;;;;;;;;;;;;;;;;5124116;27;1943;-75
2022/04/19 13:03:40;;;;;;;;;;;;;;;;;;5124104;27;1217;-76
2022/04/19 13:14:18;;;;;;;;;;;;;;;;;;5118905;27;1161;-76
2022/04/19 13:16:44;;;;;;;;;;;;;;;;;;5119488;27;1212;-75
2022/04/19 13:19:09;;;;;;;;;;;;;;;;;;5108478;27;1152;-81
2022/04/19 13:21:34;;;;;;;;;;;;;;;;;;5121393;27;1954;-80
2022/04/19 13:24:00;;;;;;;;;;;;;;;;;;5118136;27;1130;-80
2022/04/19 13:26:25;;;;;;;;;;;;;;;;;;5101041;28;1171;-82
2022/04/19 13:28:54;;;;;;;;;;;;;;;;;;5087157;28;1144;-79
2022/04/19 13:31:23;;;;;;;;;;;;;;;;;;5088799;28;1317;-80
2022/04/19 13:33:48;;;;;;;;;;;;;;;;;;5087195;28;1277;-80
2022/04/19 13:36:14;;;;;;;;;;;;;;;;;;5105459;28;1182;-79
2022/04/19 13:38:39;;;;;;;;;;;;;;;;;;5086206;28;1203;-79
2022/04/19 13:41:18;;;;;;;;;;;;;;;;;;;;;
2022/04/19 13:43:53;;;;;;;;;;;;;;;;;;5103412;28;1172;-80
2022/04/19 13:46:20;;;;;;;;;;;;;;;;;;5105198;28;1307;-79
2022/04/19 13:48:45;;;;;;;;;;;;;;;;;;5114792;28;1274;-78
2022/04/19 13:51:10;;;;;;;;;;;;;;;;;;5124262;27;1210;-79
2022/04/19 13:53:36;;;;;;;;;;;;;;;;;;5108973;27;1176;-81
2022/04/19 13:56:02;;;;;;;;;;;;;;;;;;5094558;27;1234;-80
2022/04/19 13:58:28;;;;;;;;;;;;;;;;;;5125998;27;1404;-82
2022/04/19 14:00:53;;;;;;;;;;;;;;;;;;5109923;27;1897;-81
2022/04/19 14:03:19;;;;;;;;;;;;;;;;;;5127234;27;1166;-80
2022/04/19 14:05:45;;;;;;;;;;;;;;;;;;5128992;27;1062;-81
2022/04/19 14:08:11;;;;;;;;;;;;;;;;;;5127361;27;1331;-80
2022/04/19 14:10:36;;;;;;;;;;;;;;;;;;5109793;27;1230;-78
2022/04/19 14:13:02;;;;;;;;;;;;;;;;;;5128210;27;1311;-80
2022/04/19 14:15:27;;;;;;;;;;;;;;;;;;5108555;27;1231;-78
2022/04/19 14:17:53;;;;;;;;;;;;;;;;;;5128303;27;1211;-78
2022/04/19 14:20:18;;;;;;;;;;;;;;;;;;5126569;27;1227;-79
2022/04/19 14:22:43;;;;;;;;;;;;;;;;;;5125283;27;1901;-78
2022/04/19 14:25:09;;;;;;;;;;;;;;;;;;5128499;27;1131;-75
2022/04/19 14:27:34;;;;;;;;;;;;;;;;;;5124855;27;1167;-80
2022/04/19 14:35:27;;;;;;;;;;;;;;;;;;5124398;27;1032;-77
2022/04/19 14:37:53;;;;;;;;;;;;;;;;;;5117705;27;1238;-73
2022/04/19 14:40:18;;;;;;;;;;;;;;;;;;5115122;27;1336;-73
2022/04/19 14:42:45;;;;;;;;;;;;;;;;;;5090897;28;1905;-75
2022/04/19 14:45:12;;;;;;;;;;;;;;;;;;5107774;28;1108;-75
2022/04/19 14:47:38;;;;;;;;;;;;;;;;;;5127199;27;1119;-76
2022/04/19 14:50:03;;;;;;;;;;;;;;;;;;5108475;27;1520;-75
2022/04/19 14:52:29;;;;;;;;;;;;;;;;;;5128281;27;1151;-75
2022/04/19 14:54:54;;;;;;;;;;;;;;;;;;5128867;27;1323;-73
2022/04/19 14:57:19;;;;;;;;;;;;;;;;;;5127787;27;1136;-74
2022/04/19 14:59:47;;;;;;;;;;;;;;;;;;5107800;27;1325;-75
2022/04/19 15:02:13;;;;;;;;;;;;;;;;;;5127104;27;1886;-75
2022/04/19 15:04:38;;;;;;;;;;;;;;;;;;5123363;27;1544;-75
2022/04/19 15:07:03;;;;;;;;;;;;;;;;;;5117077;27;1376;-74
2022/04/19 15:09:32;;;;;;;;;;;;;;;;;;5107051;28;1249;-74
2022/04/19 15:12:03;;;;;;;;;;;;;;;;;;5107116;27;1309;-75
2022/04/19 15:14:30;;;;;;;;;;;;;;;;;;5088045;28;1207;-73
2022/04/19 15:16:55;;;;;;;;;;;;;;;;;;5106830;28;1169;-75
2022/04/19 15:19:21;;;;;;;;;;;;;;;;;;5104382;28;1346;-75
2022/04/19 15:21:46;;;;;;;;;;;;;;;;;;5105824;28;1951;-73
2022/04/19 15:24:11;;;;;;;;;;;;;;;;;;5107066;28;1184;-74
2022/04/19 15:26:40;;;;;;;;;;;;;;;;;;5101893;27;1291;-73
2022/04/19 15:29:05;;;;;;;;;;;;;;;;;;5102379;28;1337;-73
2022/04/19 15:31:31;;;;;;;;;;;;;;;;;;5102871;28;1163;-73
2022/04/19 15:33:57;;;;;;;;;;;;;;;;;;5102682;28;1490;-74
2022/04/19 15:36:23;;;;;;;;;;;;;;;;;;5121733;27;1183;-74
2022/04/19 15:38:49;;;;;;;;;;;;;;;;;;5102349;27;1270;-74
2022/04/19 15:41:14;;;;;;;;;;;;;;;;;;5096666;27;1999;-74
2022/04/19 15:43:39;;;;;;;;;;;;;;;;;;5111861;27;1211;-74
2022/04/19 15:46:05;;;;;;;;;;;;;;;;;;5099003;27;1129;-74
2022/04/19 15:48:32;;;;;;;;;;;;;;;;;;5094555;28;1244;-74
2022/04/19 15:50:58;;;;;;;;;;;;;;;;;;5102494;28;1265;-74
2022/04/19 15:53:24;;;;;;;;;;;;;;;;;;5102531;28;1290;-74
2022/04/19 15:55:49;;;;;;;;;;;;;;;;;;5101956;27;1554;-75
2022/04/19 15:58:14;;;;;;;;;;;;;;;;;;5119506;27;1193;-75
2022/04/19 16:00:40;;;;;;;;;;;;;;;;;;5093386;28;1912;-75
2022/04/19 16:03:06;;;;;;;;;;;;;;;;;;5101735;28;1373;-75
2022/04/19 16:05:40;;;;;;;;;;;;;;;;;;5098209;27;1174;-76
2022/04/19 16:08:05;;;;;;;;;;;;;;;;;;5123872;27;1163;-73
2022/04/19 16:10:40;;;;;;;;;;;;;;;;;;5122006;27;1176;-73
2022/04/19 16:13:06;;;;;;;;;;;;;;;;;;5118365;27;1127;-75
2022/04/19 16:15:39;;;;;;;;;;;;;;;;;;5118232;27;1326;-74
2022/04/19 16:23:36;;;;;;;;;;;;;;;;;;5121639;27;1016;-74
2022/04/19 16:26:02;;;;;;;;;;;;;;;;;;5100857;27;1152;-75
2022/04/19 16:28:30;;;;;;;;;;;;;;;;;;5107150;27;1310;-74
2022/04/19 16:30:56;;;;;;;;;;;;;;;;;;5119153;27;1417;-74
2022/04/19 16:33:22;;;;;;;;;;;;;;;;;;5102476;27;1235;-76
2022/04/19 16:35:47;;;;;;;;;;;;;;;;;;5105165;28;1186;-75
2022/04/19 16:38:13;;;;;;;;;;;;;;;;;;5101850;28;1382;-74
2022/04/19 16:40:42;;;;;;;;;;;;;;;;;;5102529;28;2033;-76
2022/04/19 16:43:07;;;;;;;;;;;;;;;;;;5115342;27;1190;-75
2022/04/19 16:45:39;;;;;;;;;;;;;;;;;;5119450;27;1176;-75
2022/04/19 16:48:05;;;;;;;;;;;;;;;;;;5119339;27;1175;-73
2022/04/19 16:50:31;;;;;;;;;;;;;;;;;;5124243;27;1147;-72
2022/04/19 16:52:57;;;;;;;;;;;;;;;;;;5121765;27;1304;-74
2022/04/19 16:55:22;;;;;;;;;;;;;;;;;;5124160;27;1276;-75
2022/04/19 16:57:48;;;;;;;;;;;;;;;;;;5120124;27;1159;-75
2022/04/19 17:00:13;;;;;;;;;;;;;;;;;;5094057;28;1230;-75
2022/04/19 17:02:41;;;;;;;;;;;;;;;;;;5094588;28;1954;-76
2022/04/19 17:05:07;;;;;;;;;;;;;;;;;;5117211;27;1115;-74
2022/04/19 17:07:33;;;;;;;;;;;;;;;;;;5125513;27;1174;-74
2022/04/19 17:09:58;;;;;;;;;;;;;;;;;;5119907;27;1248;-74
2022/04/19 17:12:24;;;;;;;;;;;;;;;;;;5098772;28;1482;-73
2022/04/19 17:14:49;;;;;;;;;;;;;;;;;;5109334;27;1443;-74
2022/04/19 17:17:14;;;;;;;;;;;;;;;;;;5104236;28;1361;-73
2022/04/19 17:19:42;;;;;;;;;;;;;;;;;;5082838;28;1358;-74
2022/04/19 17:22:08;;;;;;;;;;;;;;;;;;5103518;28;1937;-75
2022/04/19 17:24:33;;;;;;;;;;;;;;;;;;5104362;28;1140;-74
2022/04/19 17:26:59;;;;;;;;;;;;;;;;;;5101612;27;1024;-75
2022/04/19 17:29:26;;;;;;;;;;;;;;;;;;5122471;27;1270;-74
2022/04/19 17:31:52;;;;;;;;;;;;;;;;;;5105295;27;1281;-75
2022/04/19 17:34:17;;;;;;;;;;;;;;;;;;5115791;27;1160;-75
2022/04/19 17:36:42;;;;;;;;;;;;;;;;;;5104301;27;1372;-74
2022/04/19 17:39:08;;;;;;;;;;;;;;;;;;5091721;28;1265;-75
2022/04/19 17:41:35;;;;;;;;;;;;;;;;;;5109608;28;1947;-74
2022/04/19 17:44:01;;;;;;;;;;;;;;;;;;5096454;28;1037;-75
2022/04/19 17:46:31;;;;;;;;;;;;;;;;;;5103531;28;1170;-74
2022/04/19 17:48:56;;;;;;;;;;;;;;;;;;5097371;28;1023;-76
2022/04/19 17:56:49;;;;;;;;;;;;;;;;;;5119453;28;1047;-74
2022/04/19 17:59:15;;;;;;;;;;;;;;;;;;5121509;28;1108;-75
2022/04/19 18:01:41;;;;;;;;;;;;;;;;;;5089682;28;1897;-74